Time,TemperatureF,DewpointF,PressureIn,WindDirection,WindDirectionDegrees,WindSpeedMPH,WindSpeedGustMPH,Humidity,HourlyPrecipIn,Conditions,Clouds,dailyrainin,SoftwareType,DateUTC
2013-03-17 00:00:00,58.0,48.3,29.77,SSW,200,0.0,0.0,70,0.00,,---,0.00,VWS V14.01,2013-03-17 04:00:00,
2013-03-17 00:01:00,58.0,48.3,29.77,SSW,200,0.0,0.0,70,0.00,,---,0.00,VWS V14.01,2013-03-17 04:01:00,
2013-03-17 00:03:00,57.8,48.1,29.77,SSW,200,0.0,0.0,70,0.00,,---,0.00,VWS V14.01,2013-03-17 04:03:00,
2013-03-17 00:05:00,57.6,47.9,29.77,SSW,200,0.0,0.0,70,0.00,,---,0.00,VWS V14.01,2013-03-17 04:05:00,
2013-03-17 00:07:00,57.5,47.8,29.77,SSW,200,0.0,0.0,70,0.00,,---,0.00,VWS V14.01,2013-03-17 04:07:00,
2013-03-17 00:09:00,57.5,47.8,29.77,SSW,200,0.0,0.0,70,0.00,,---,0.00,VWS V14.01,2013-03-17 04:09:00,
2013-03-17 00:11:00,57.3,48.0,29.77,SSW,200,0.0,0.0,71,0.00,,---,0.00,VWS V14.01,2013-03-17 04:11:00,
2013-03-17 00:13:00,57.2,47.9,29.77,SSW,200,0.0,0.0,71,0.00,,---,0.00,VWS V14.01,2013-03-17 04:13:00,
2013-03-17 00:15:00,57.2,47.9,29.77,SSW,200,0.0,0.0,71,0.00,,---,0.00,VWS V14.01,2013-03-17 04:15:00,
2013-03-17 00:17:00,57.0,47.7,29.77,SSW,200,0.0,0.0,71,0.00,,---,0.00,VWS V14.01,2013-03-17 04:17:00,
2013-03-17 00:19:00,56.9,47.6,29.77,SSW,200,0.0,0.0,71,0.00,,---,0.00,VWS V14.01,2013-03-17 04:19:00,
2013-03-17 00:21:00,56.7,47.4,29.77,SSW,200,0.0,0.0,71,0.00,,---,0.00,VWS V14.01,2013-03-17 04:21:00,
2013-03-17 00:23:00,56.5,47.6,29.77,SSW,200,0.0,0.0,72,0.00,,---,0.00,VWS V14.01,2013-03-17 04:23:00,
2013-03-17 00:25:00,56.0,47.5,29.77,SSW,200,0.0,2.0,73,0.00,,---,0.00,VWS V14.01,2013-03-17 04:25:00,
2013-03-17 00:27:00,55.4,47.3,29.77,SSW,206,0.0,2.0,74,0.00,,---,0.00,VWS V14.01,2013-03-17 04:27:00,
2013-03-17 00:29:00,54.8,47.7,29.78,SSW,206,0.0,2.0,77,0.00,,---,0.00,VWS V14.01,2013-03-17 04:29:00,
2013-03-17 00:30:00,54.7,47.6,29.78,SSW,206,0.0,2.0,77,0.00,,---,0.00,VWS V14.01,2013-03-17 04:30:00,
2013-03-17 00:31:00,54.5,48.1,29.78,SSW,206,0.0,0.0,79,0.00,,---,0.00,VWS V14.01,2013-03-17 04:31:00,
2013-03-17 00:33:00,54.2,47.8,29.78,SSW,206,0.0,0.0,79,0.00,,---,0.00,VWS V14.01,2013-03-17 04:33:00,
2013-03-17 00:35:00,53.9,47.9,29.78,SSW,206,0.0,0.0,80,0.00,,---,0.00,VWS V14.01,2013-03-17 04:35:00,
2013-03-17 00:37:00,53.8,47.8,29.78,SSW,206,0.0,0.0,80,0.00,,---,0.00,VWS V14.01,2013-03-17 04:37:00,
2013-03-17 00:39:00,53.8,47.8,29.78,SSW,206,0.0,0.0,80,0.00,,---,0.00,VWS V14.01,2013-03-17 04:39:00,
2013-03-17 00:41:00,53.6,47.9,29.78,SSW,206,0.0,0.0,81,0.00,,---,0.00,VWS V14.01,2013-03-17 04:41:00,
2013-03-17 00:43:00,53.6,47.9,29.78,SSW,206,0.0,0.0,81,0.00,,---,0.00,VWS V14.01,2013-03-17 04:43:00,
2013-03-17 00:45:00,53.6,47.9,29.78,SSW,206,0.0,0.0,81,0.00,,---,0.00,VWS V14.01,2013-03-17 04:45:00,
2013-03-17 00:47:00,53.6,47.9,29.78,SSW,206,0.0,0.0,81,0.00,,---,0.00,VWS V14.01,2013-03-17 04:47:00,
2013-03-17 00:49:00,53.6,47.9,29.78,SSW,206,0.0,0.0,81,0.00,,---,0.00,VWS V14.01,2013-03-17 04:49:00,
2013-03-17 00:51:00,53.8,48.1,29.78,SSW,206,2.0,2.0,81,0.00,,---,0.00,VWS V14.01,2013-03-17 04:51:00,
2013-03-17 00:53:00,54.1,48.1,29.78,SSW,206,0.0,2.0,80,0.00,,---,0.00,VWS V14.01,2013-03-17 04:53:00,
2013-03-17 00:55:00,54.2,47.8,29.78,SSW,206,0.0,2.0,79,0.00,,---,0.00,VWS V14.01,2013-03-17 04:55:00,
2013-03-17 00:57:00,54.4,48.0,29.78,SSW,206,0.0,2.0,79,0.00,,---,0.00,VWS V14.01,2013-03-17 04:57:00,
2013-03-17 00:59:00,54.5,47.8,29.78,SSW,206,0.0,2.0,78,0.00,,---,0.00,VWS V14.01,2013-03-17 04:59:00,
2013-03-17 01:01:00,54.5,48.1,29.78,SSW,206,0.0,0.0,79,0.00,,---,0.00,VWS V14.01,2013-03-17 05:01:00,
2013-03-17 01:03:00,54.5,47.8,29.78,SSW,206,0.0,0.0,78,0.00,,---,0.00,VWS V14.01,2013-03-17 05:03:00,
2013-03-17 01:05:00,54.7,48.0,29.78,SSW,206,0.0,0.0,78,0.00,,---,0.00,VWS V14.01,2013-03-17 05:05:00,
2013-03-17 01:11:00,55.0,47.6,29.78,West,274,2.0,2.0,76,0.00,,---,0.00,VWS V14.01,2013-03-17 05:11:00,
2013-03-17 01:15:00,54.8,48.1,29.78,NW,305,0.0,3.0,78,0.00,,---,0.00,VWS V14.01,2013-03-17 05:15:00,
2013-03-17 01:29:00,55.0,48.3,29.78,North,353,0.0,3.0,78,0.00,,---,0.00,VWS V14.01,2013-03-17 05:29:00,
2013-03-17 01:33:00,55.1,48.0,29.78,North,353,0.0,0.0,77,0.00,,---,0.00,VWS V14.01,2013-03-17 05:33:00,
2013-03-17 01:35:00,55.1,48.0,29.78,North,353,0.0,0.0,77,0.00,,---,0.00,VWS V14.01,2013-03-17 05:35:00,
2013-03-17 01:55:00,55.3,48.2,29.79,North,353,0.0,1.0,77,0.00,,---,0.00,VWS V14.01,2013-03-17 05:55:00,
2013-03-17 01:57:00,55.3,48.2,29.79,North,353,0.0,1.0,77,0.00,,---,0.00,VWS V14.01,2013-03-17 05:57:00,
2013-03-17 01:59:00,55.3,48.2,29.79,North,353,0.0,1.0,77,0.00,,---,0.00,VWS V14.01,2013-03-17 05:59:00,
2013-03-17 02:02:00,54.5,47.8,29.78,SSW,206,0.0,2.0,78,0.00,,---,0.00,VWS V14.01,2013-03-17 06:02:00,
2013-03-17 02:09:00,54.8,48.1,29.78,SSW,206,2.0,2.0,78,0.00,,---,0.00,VWS V14.01,2013-03-17 06:09:00,
2013-03-17 02:15:00,54.8,47.7,29.78,NW,305,2.0,3.0,77,0.00,,---,0.00,VWS V14.01,2013-03-17 06:15:00,
2013-03-17 02:21:00,54.7,48.0,29.78,NW,306,0.0,2.0,78,0.00,,---,0.00,VWS V14.01,2013-03-17 06:21:00,
2013-03-17 02:28:00,54.7,48.0,29.78,North,353,0.0,3.0,78,0.00,,---,0.00,VWS V14.01,2013-03-17 06:28:00,
2013-03-17 02:34:00,55.0,47.9,29.78,North,353,0.0,0.0,77,0.00,,---,0.00,VWS V14.01,2013-03-17 06:34:00,
2013-03-17 02:40:00,55.1,48.0,29.78,North,353,0.0,0.0,77,0.00,,---,0.00,VWS V14.01,2013-03-17 06:40:00,
2013-03-17 02:46:00,55.3,48.2,29.78,North,353,0.0,0.0,77,0.00,,---,0.00,VWS V14.01,2013-03-17 06:46:00,
2013-03-17 02:52:00,55.3,48.2,29.79,North,353,0.0,0.0,77,0.00,,---,0.00,VWS V14.01,2013-03-17 06:52:00,
2013-03-17 03:02:00,55.4,48.3,29.79,North,353,0.0,1.0,77,0.00,,---,0.00,VWS V14.01,2013-03-17 07:02:00,
2013-03-17 03:08:00,55.6,48.2,29.79,North,353,0.0,0.0,76,0.00,,---,0.00,VWS V14.01,2013-03-17 07:08:00,
2013-03-17 03:14:00,55.3,47.5,29.79,North,353,2.0,2.0,75,0.00,,---,0.00,VWS V14.01,2013-03-17 07:14:00,
2013-03-17 03:20:00,54.7,47.6,29.79,North,353,0.0,0.0,77,0.00,,---,0.00,VWS V14.01,2013-03-17 07:20:00,
2013-03-17 03:26:00,54.5,47.8,29.79,North,353,0.0,0.0,78,0.00,,---,0.00,VWS V14.01,2013-03-17 07:26:00,
2013-03-17 03:32:00,54.4,48.0,29.80,North,353,0.0,0.0,79,0.00,,---,0.00,VWS V14.01,2013-03-17 07:32:00,
2013-03-17 03:38:00,54.1,47.4,29.80,North,353,0.0,0.0,78,0.00,,---,0.00,VWS V14.01,2013-03-17 07:38:00,
2013-03-17 03:44:00,53.6,47.6,29.80,North,353,0.0,0.0,80,0.00,,---,0.00,VWS V14.01,2013-03-17 07:44:00,
2013-03-17 03:50:00,53.2,47.5,29.80,North,353,0.0,0.0,81,0.00,,---,0.00,VWS V14.01,2013-03-17 07:50:00,
2013-03-17 03:56:00,53.1,47.4,29.80,North,353,0.0,0.0,81,0.00,,---,0.00,VWS V14.01,2013-03-17 07:56:00,
2013-03-17 04:02:00,52.9,47.6,29.79,North,353,0.0,0.0,82,0.00,,---,0.00,VWS V14.01,2013-03-17 08:02:00,
2013-03-17 04:08:00,52.9,47.6,29.79,North,353,0.0,2.0,82,0.00,,---,0.00,VWS V14.01,2013-03-17 08:08:00,
2013-03-17 04:14:00,52.8,47.5,29.79,North,353,0.0,2.0,82,0.00,,---,0.00,VWS V14.01,2013-03-17 08:14:00,
2013-03-17 04:20:00,52.3,47.6,29.80,North,353,0.0,0.0,84,0.00,,---,0.00,VWS V14.01,2013-03-17 08:20:00,
2013-03-17 04:26:00,52.0,47.3,29.80,North,353,0.0,0.0,84,0.00,,---,0.00,VWS V14.01,2013-03-17 08:26:00,
2013-03-17 04:32:00,52.0,47.3,29.79,North,353,0.0,0.0,84,0.00,,---,0.00,VWS V14.01,2013-03-17 08:32:00,
2013-03-17 04:38:00,52.0,47.6,29.79,North,353,0.0,0.0,85,0.00,,---,0.00,VWS V14.01,2013-03-17 08:38:00,
2013-03-17 04:44:00,51.9,47.5,29.79,North,353,0.0,0.0,85,0.00,,---,0.00,VWS V14.01,2013-03-17 08:44:00,
2013-03-17 04:50:00,51.6,47.6,29.80,North,353,0.0,0.0,86,0.00,,---,0.00,VWS V14.01,2013-03-17 08:50:00,
2013-03-17 04:57:00,51.6,47.6,29.80,North,353,0.0,0.0,86,0.00,,---,0.00,VWS V14.01,2013-03-17 08:57:00,
2013-03-17 05:02:00,51.6,47.6,29.80,North,353,0.0,0.0,86,0.00,,---,0.00,VWS V14.01,2013-03-17 09:02:00,
2013-03-17 05:09:00,51.6,47.9,29.80,North,353,0.0,0.0,87,0.00,,---,0.00,VWS V14.01,2013-03-17 09:09:00,
2013-03-17 05:15:00,51.6,47.9,29.80,North,353,0.0,0.0,87,0.00,,---,0.00,VWS V14.01,2013-03-17 09:15:00,
2013-03-17 05:21:00,51.7,48.0,29.82,North,353,2.0,2.0,87,0.00,,---,0.00,VWS V14.01,2013-03-17 09:21:00,
2013-03-17 05:27:00,51.7,47.7,29.82,ENE,65,0.0,5.0,86,0.00,,---,0.00,VWS V14.01,2013-03-17 09:27:00,
2013-03-17 05:32:00,51.7,48.0,29.83,ENE,57,1.0,5.0,87,0.00,,---,0.00,VWS V14.01,2013-03-17 09:32:00,
2013-03-17 05:39:00,51.7,48.0,29.83,ENE,63,2.0,4.0,87,0.00,,---,0.00,VWS V14.01,2013-03-17 09:39:00,
2013-03-17 05:45:00,51.6,47.9,29.83,ENE,66,3.0,4.0,87,0.00,,---,0.00,VWS V14.01,2013-03-17 09:45:00,
2013-03-17 05:51:00,51.6,48.2,29.83,ENE,64,2.0,4.0,88,0.00,,---,0.00,VWS V14.01,2013-03-17 09:51:00,
2013-03-17 05:57:00,51.4,48.3,29.83,ENE,64,0.0,4.0,89,0.00,,---,0.00,VWS V14.01,2013-03-17 09:57:00,
2013-03-17 06:03:00,51.4,48.3,29.83,ENE,76,5.0,5.0,89,0.00,,---,0.00,VWS V14.01,2013-03-17 10:03:00,
2013-03-17 06:09:00,51.3,48.5,29.83,ENE,61,2.0,5.0,90,0.00,,---,0.00,VWS V14.01,2013-03-17 10:09:00,
2013-03-17 06:15:00,51.3,48.8,29.83,ENE,62,0.0,5.0,91,0.00,,---,0.00,VWS V14.01,2013-03-17 10:15:00,
2013-03-17 06:21:00,51.3,49.1,29.85,ENE,62,0.0,0.0,92,0.00,,---,0.00,VWS V14.01,2013-03-17 10:21:00,
2013-03-17 06:27:00,51.1,49.2,29.85,ENE,62,0.0,2.0,93,0.00,,---,0.00,VWS V14.01,2013-03-17 10:27:00,
2013-03-17 06:33:00,51.1,49.2,29.86,ENE,62,0.0,2.0,93,0.00,,---,0.00,VWS V14.01,2013-03-17 10:33:00,
2013-03-17 06:40:00,51.1,49.4,29.86,ENE,62,0.0,2.0,94,0.00,,---,0.00,VWS V14.01,2013-03-17 10:40:00,
2013-03-17 06:46:00,51.0,49.3,29.86,ENE,63,0.0,2.0,94,0.00,,---,0.00,VWS V14.01,2013-03-17 10:46:00,
2013-03-17 06:52:00,51.0,49.6,29.86,ENE,68,1.0,4.0,95,0.00,,---,0.00,VWS V14.01,2013-03-17 10:52:00,
2013-03-17 06:58:00,51.0,49.6,29.86,ENE,67,0.0,4.0,95,0.00,,---,0.00,VWS V14.01,2013-03-17 10:58:00,
2013-03-17 07:04:00,51.0,49.9,29.88,NE,56,1.0,3.0,96,0.00,,---,0.00,VWS V14.01,2013-03-17 11:04:00,
2013-03-17 07:10:00,51.0,49.9,29.88,ENE,58,0.0,3.0,96,0.00,,---,0.00,VWS V14.01,2013-03-17 11:10:00,
2013-03-17 07:16:00,51.0,49.9,29.88,ENE,57,1.0,3.0,96,0.00,,---,0.00,VWS V14.01,2013-03-17 11:16:00,
2013-03-17 07:22:00,51.0,49.9,29.88,ENE,67,2.0,3.0,96,0.00,,---,0.00,VWS V14.01,2013-03-17 11:22:00,
2013-03-17 07:28:00,50.8,50.0,29.88,ENE,75,5.0,5.0,97,0.00,,---,0.00,VWS V14.01,2013-03-17 11:28:00,
2013-03-17 07:34:00,50.7,49.9,29.88,ENE,61,0.0,2.0,97,0.00,,---,0.00,VWS V14.01,2013-03-17 11:34:00,
2013-03-17 07:40:00,50.4,49.3,29.88,ENE,62,2.0,2.0,96,0.00,,---,0.00,VWS V14.01,2013-03-17 11:40:00,
2013-03-17 07:46:00,49.9,48.5,29.90,NE,56,0.0,4.0,95,0.00,,---,0.00,VWS V14.01,2013-03-17 11:46:00,
2013-03-17 07:52:00,49.6,48.0,29.90,ENE,68,1.0,4.0,94,0.00,,---,0.00,VWS V14.01,2013-03-17 11:52:00,
2013-03-17 07:58:00,49.5,47.6,29.90,NNE,20,2.0,4.0,93,0.00,,---,0.00,VWS V14.01,2013-03-17 11:58:00,
2013-03-17 08:04:00,49.4,47.5,29.91,North,11,1.0,5.0,93,0.00,,---,0.00,VWS V14.01,2013-03-17 12:04:00,
2013-03-17 08:10:00,49.2,47.0,29.91,ENE,65,3.0,5.0,92,0.00,,---,0.00,VWS V14.01,2013-03-17 12:10:00,
2013-03-17 08:16:00,48.9,46.4,29.93,NNE,32,1.0,5.0,91,0.00,,---,0.00,VWS V14.01,2013-03-17 12:16:00,
2013-03-17 08:23:00,48.8,46.6,29.93,ENE,58,2.0,5.0,92,0.00,,---,0.00,VWS V14.01,2013-03-17 12:23:00,
2013-03-17 08:29:00,48.6,46.4,29.93,ENE,60,0.0,5.0,92,0.01,,---,0.01,VWS V14.01,2013-03-17 12:29:00,
2013-03-17 08:35:00,48.5,46.6,29.94,ENE,60,0.0,1.0,93,0.01,,---,0.01,VWS V14.01,2013-03-17 12:35:00,
2013-03-17 08:41:00,48.3,46.7,29.94,ENE,59,3.0,4.0,94,0.01,,---,0.01,VWS V14.01,2013-03-17 12:41:00,
2013-03-17 08:47:00,48.2,46.6,29.93,ENE,60,0.0,4.0,94,0.01,,---,0.01,VWS V14.01,2013-03-17 12:47:00,
2013-03-17 08:53:00,48.0,46.6,29.93,ENE,61,0.0,3.0,95,0.01,,---,0.01,VWS V14.01,2013-03-17 12:53:00,
2013-03-17 08:59:00,47.9,46.5,29.93,ENE,61,1.0,3.0,95,0.02,,---,0.02,VWS V14.01,2013-03-17 12:59:00,
2013-03-17 09:05:00,47.9,46.8,29.95,ENE,63,0.0,3.0,96,0.02,,---,0.02,VWS V14.01,2013-03-17 13:05:00,
2013-03-17 09:11:00,47.7,46.6,29.95,ENE,63,0.0,3.0,96,0.02,,---,0.02,VWS V14.01,2013-03-17 13:11:00,
2013-03-17 09:17:00,47.6,46.5,29.96,ENE,65,0.0,3.0,96,0.03,,---,0.03,VWS V14.01,2013-03-17 13:17:00,
2013-03-17 09:23:00,47.4,46.3,29.96,North,1,0.0,4.0,96,0.03,,---,0.03,VWS V14.01,2013-03-17 13:23:00,
2013-03-17 09:29:00,47.3,46.2,29.96,North,1,1.0,4.0,96,0.03,,---,0.03,VWS V14.01,2013-03-17 13:29:00,
2013-03-17 09:35:00,47.1,46.0,29.98,North,1,0.0,3.0,96,0.02,,---,0.03,VWS V14.01,2013-03-17 13:35:00,
2013-03-17 09:41:00,46.8,45.7,29.98,North,0,0.0,3.0,96,0.02,,---,0.03,VWS V14.01,2013-03-17 13:41:00,
2013-03-17 09:47:00,46.5,45.4,29.99,NNE,28,1.0,5.0,96,0.02,,---,0.03,VWS V14.01,2013-03-17 13:47:00,
2013-03-17 09:53:00,46.4,45.3,29.99,ENE,60,0.0,4.0,96,0.02,,---,0.03,VWS V14.01,2013-03-17 13:53:00,
2013-03-17 09:59:00,46.2,45.1,29.99,NNE,18,0.0,4.0,96,0.02,,---,0.03,VWS V14.01,2013-03-17 13:59:00,
2013-03-17 10:05:00,46.1,45.0,29.98,NE,55,2.0,4.0,96,0.02,,---,0.04,VWS V14.01,2013-03-17 14:05:00,
2013-03-17 10:11:00,46.0,44.9,29.98,NE,55,0.0,4.0,96,0.02,,---,0.04,VWS V14.01,2013-03-17 14:11:00,
2013-03-17 10:17:00,45.8,44.7,29.98,ENE,58,0.0,5.0,96,0.02,,---,0.04,VWS V14.01,2013-03-17 14:17:00,
2013-03-17 10:23:00,45.7,44.6,29.98,ENE,65,2.0,4.0,96,0.01,,---,0.04,VWS V14.01,2013-03-17 14:23:00,
2013-03-17 10:29:00,45.5,44.4,29.98,ENE,69,2.0,4.0,96,0.01,,---,0.04,VWS V14.01,2013-03-17 14:29:00,
2013-03-17 10:36:00,45.5,44.4,29.99,ENE,65,1.0,5.0,96,0.01,,---,0.04,VWS V14.01,2013-03-17 14:36:00,
2013-03-17 10:42:00,45.4,44.0,29.99,NE,55,0.0,5.0,95,0.01,,---,0.04,VWS V14.01,2013-03-17 14:42:00,
2013-03-17 10:47:00,45.1,43.8,30.00,ENE,65,1.0,5.0,95,0.01,,---,0.04,VWS V14.01,2013-03-17 14:47:00,
2013-03-17 10:54:00,44.9,43.3,30.00,NE,44,0.0,6.0,94,0.01,,---,0.04,VWS V14.01,2013-03-17 14:54:00,
2013-03-17 11:00:00,44.6,43.0,30.00,NE,44,0.0,7.0,94,0.01,,---,0.04,VWS V14.01,2013-03-17 15:00:00,
2013-03-17 11:06:00,44.6,43.0,30.01,ENE,62,0.0,6.0,94,0.00,,---,0.04,VWS V14.01,2013-03-17 15:06:00,
2013-03-17 11:12:00,44.8,43.2,30.01,ENE,58,3.0,6.0,94,0.00,,---,0.04,VWS V14.01,2013-03-17 15:12:00,
2013-03-17 11:17:00,44.8,43.2,30.01,ENE,68,1.0,6.0,94,0.00,,---,0.04,VWS V14.01,2013-03-17 15:17:00,
2013-03-17 11:22:00,44.6,43.0,30.01,ENE,70,0.0,4.0,94,0.00,,---,0.04,VWS V14.01,2013-03-17 15:22:00,
2013-03-17 11:28:00,44.6,43.0,30.01,ENE,68,3.0,4.0,94,0.00,,---,0.04,VWS V14.01,2013-03-17 15:28:00,
2013-03-17 11:34:00,44.6,43.0,30.01,ENE,64,0.0,0.0,94,0.00,,---,0.04,VWS V14.01,2013-03-17 15:34:00,
2013-03-17 11:40:00,44.6,43.0,30.01,East,81,1.0,3.0,94,0.00,,---,0.04,VWS V14.01,2013-03-17 15:40:00,
2013-03-17 11:47:00,44.6,43.0,30.02,ENE,57,0.0,3.0,94,0.00,,---,0.04,VWS V14.01,2013-03-17 15:47:00,
2013-03-17 11:53:00,44.5,42.9,30.02,ENE,60,0.0,4.0,94,0.00,,---,0.04,VWS V14.01,2013-03-17 15:53:00,
2013-03-17 11:59:00,44.5,42.6,30.02,NNE,16,0.0,5.0,93,0.00,,---,0.04,VWS V14.01,2013-03-17 15:59:00,
2013-03-17 12:05:00,44.3,42.4,30.02,ENE,62,1.0,4.0,93,0.00,,---,0.04,VWS V14.01,2013-03-17 16:05:00,
2013-03-17 12:11:00,44.3,42.4,30.02,NE,48,2.0,4.0,93,0.00,,---,0.04,VWS V14.01,2013-03-17 16:11:00,
2013-03-17 12:17:00,44.3,42.1,30.02,ENE,70,2.0,5.0,92,0.00,,---,0.04,VWS V14.01,2013-03-17 16:17:00,
2013-03-17 12:23:00,44.3,42.1,30.02,ENE,63,6.0,6.0,92,0.00,,---,0.04,VWS V14.01,2013-03-17 16:23:00,
2013-03-17 12:29:00,44.3,42.1,30.02,ENE,73,4.0,7.0,92,0.00,,---,0.04,VWS V14.01,2013-03-17 16:29:00,
2013-03-17 12:35:00,44.2,42.0,30.03,ENE,60,0.0,7.0,92,0.00,,---,0.04,VWS V14.01,2013-03-17 16:35:00,
2013-03-17 12:41:00,44.2,41.7,30.03,NNE,32,2.0,7.0,91,0.00,,---,0.04,VWS V14.01,2013-03-17 16:41:00,
2013-03-17 12:47:00,43.9,41.5,30.03,ENE,74,1.0,7.0,91,0.00,,---,0.04,VWS V14.01,2013-03-17 16:47:00,
2013-03-17 12:53:00,43.9,41.5,30.03,ENE,57,0.0,3.0,91,0.00,,---,0.04,VWS V14.01,2013-03-17 16:53:00,
2013-03-17 12:59:00,43.9,41.5,30.03,ENE,66,1.0,3.0,91,0.00,,---,0.04,VWS V14.01,2013-03-17 16:59:00,
2013-03-17 13:05:00,43.6,41.2,30.03,ENE,71,4.0,5.0,91,0.00,,---,0.04,VWS V14.01,2013-03-17 17:05:00,
2013-03-17 13:11:00,43.5,41.0,30.03,ENE,68,3.0,5.0,91,0.00,,---,0.04,VWS V14.01,2013-03-17 17:11:00,
2013-03-17 13:17:00,43.3,40.6,30.04,NE,44,0.0,5.0,90,0.00,,---,0.04,VWS V14.01,2013-03-17 17:17:00,
2013-03-17 13:23:00,43.2,40.5,30.04,ENE,60,3.0,5.0,90,0.00,,---,0.04,VWS V14.01,2013-03-17 17:23:00,
2013-03-17 13:29:00,43.1,40.1,30.04,NE,49,0.0,5.0,89,0.00,,---,0.04,VWS V14.01,2013-03-17 17:29:00,
2013-03-17 13:35:00,43.1,40.1,30.03,NE,56,3.0,6.0,89,0.00,,---,0.04,VWS V14.01,2013-03-17 17:35:00,
2013-03-17 13:42:00,43.2,40.2,30.03,NE,50,3.0,6.0,89,0.00,,---,0.04,VWS V14.01,2013-03-17 17:42:00,
2013-03-17 13:47:00,43.1,39.8,30.03,ENE,68,2.0,6.0,88,0.00,,---,0.04,VWS V14.01,2013-03-17 17:47:00,
2013-03-17 13:54:00,43.1,39.8,30.03,ENE,60,3.0,5.0,88,0.00,,---,0.04,VWS V14.01,2013-03-17 17:54:00,
2013-03-17 14:00:00,43.1,39.8,30.03,ENE,59,0.0,5.0,88,0.00,,---,0.04,VWS V14.01,2013-03-17 18:00:00,
2013-03-17 14:06:00,43.2,40.2,30.02,ENE,68,2.0,4.0,89,0.00,,---,0.04,VWS V14.01,2013-03-17 18:06:00,
2013-03-17 14:12:00,43.3,40.3,30.02,East,84,4.0,7.0,89,0.00,,---,0.04,VWS V14.01,2013-03-17 18:12:00,
2013-03-17 14:17:00,43.3,40.0,30.02,ENE,65,2.0,7.0,88,0.00,,---,0.04,VWS V14.01,2013-03-17 18:17:00,
2013-03-17 14:22:00,43.5,39.9,30.02,NNE,28,0.0,6.0,87,0.00,,---,0.04,VWS V14.01,2013-03-17 18:22:00,
2013-03-17 14:28:00,43.3,39.7,30.02,ENE,65,4.0,6.0,87,0.00,,---,0.04,VWS V14.01,2013-03-17 18:28:00,
2013-03-17 14:34:00,43.3,39.7,30.01,ENE,63,1.0,2.0,87,0.00,,---,0.04,VWS V14.01,2013-03-17 18:34:00,
2013-03-17 14:40:00,43.3,39.7,30.01,ENE,68,2.0,5.0,87,0.00,,---,0.04,VWS V14.01,2013-03-17 18:40:00,
2013-03-17 14:46:00,43.3,39.7,30.01,ENE,60,3.0,5.0,87,0.00,,---,0.04,VWS V14.01,2013-03-17 18:46:00,
2013-03-17 14:52:00,43.2,39.6,30.01,ENE,65,1.0,4.0,87,0.00,,---,0.04,VWS V14.01,2013-03-17 18:52:00,
2013-03-17 14:58:00,43.1,39.5,30.01,ENE,58,1.0,4.0,87,0.00,,---,0.04,VWS V14.01,2013-03-17 18:58:00,
2013-03-17 15:04:00,43.1,39.5,30.02,ENE,63,2.0,4.0,87,0.00,,---,0.04,VWS V14.01,2013-03-17 19:04:00,
2013-03-17 15:10:00,42.9,39.6,30.02,ENE,70,0.0,4.0,88,0.00,,---,0.04,VWS V14.01,2013-03-17 19:10:00,
2013-03-17 15:16:00,42.9,39.6,30.01,NE,56,1.0,5.0,88,0.00,,---,0.04,VWS V14.01,2013-03-17 19:16:00,
2013-03-17 15:22:00,43.1,40.1,30.01,ENE,70,1.0,3.0,89,0.00,,---,0.04,VWS V14.01,2013-03-17 19:22:00,
2013-03-17 15:28:00,42.9,39.6,30.01,ENE,68,2.0,4.0,88,0.00,,---,0.04,VWS V14.01,2013-03-17 19:28:00,
2013-03-17 15:35:00,42.8,39.5,30.01,ENE,61,0.0,3.0,88,0.00,,---,0.04,VWS V14.01,2013-03-17 19:35:00,
2013-03-17 15:41:00,42.6,39.6,30.01,ENE,66,0.0,3.0,89,0.00,,---,0.04,VWS V14.01,2013-03-17 19:41:00,
2013-03-17 15:47:00,42.5,39.5,30.02,NE,56,0.0,4.0,89,0.00,,---,0.04,VWS V14.01,2013-03-17 19:47:00,
2013-03-17 15:53:00,42.3,39.6,30.02,NE,47,0.0,3.0,90,0.00,,---,0.04,VWS V14.01,2013-03-17 19:53:00,
2013-03-17 15:59:00,42.2,39.5,30.02,ENE,57,1.0,4.0,90,0.00,,---,0.04,VWS V14.01,2013-03-17 19:59:00,
2013-03-17 16:05:00,42.2,39.8,30.02,ENE,60,2.0,3.0,91,0.00,,---,0.04,VWS V14.01,2013-03-17 20:05:00,
2013-03-17 16:11:00,42.2,39.8,30.02,ENE,75,2.0,3.0,91,0.00,,---,0.04,VWS V14.01,2013-03-17 20:11:00,
2013-03-17 16:17:00,42.1,39.7,30.02,ENE,65,0.0,4.0,91,0.00,,---,0.04,VWS V14.01,2013-03-17 20:17:00,
2013-03-17 16:23:00,42.1,39.7,30.02,ENE,65,1.0,4.0,91,0.00,,---,0.04,VWS V14.01,2013-03-17 20:23:00,
2013-03-17 16:30:00,42.1,39.7,30.02,ENE,62,3.0,6.0,91,0.00,,---,0.04,VWS V14.01,2013-03-17 20:30:00,
2013-03-17 16:36:00,41.9,39.2,30.02,ENE,66,1.0,4.0,90,0.00,,---,0.04,VWS V14.01,2013-03-17 20:36:00,
2013-03-17 16:42:00,41.9,38.9,30.02,ENE,65,0.0,4.0,89,0.00,,---,0.04,VWS V14.01,2013-03-17 20:42:00,
2013-03-17 16:47:00,41.8,38.8,30.02,NE,50,1.0,4.0,89,0.00,,---,0.04,VWS V14.01,2013-03-17 20:47:00,
2013-03-17 16:54:00,41.8,38.5,30.02,ENE,72,0.0,6.0,88,0.00,,---,0.04,VWS V14.01,2013-03-17 20:54:00,
2013-03-17 17:00:00,41.6,38.0,30.02,ENE,66,2.0,6.0,87,0.00,,---,0.04,VWS V14.01,2013-03-17 21:00:00,
2013-03-17 17:06:00,41.5,37.6,30.03,ENE,73,2.0,6.0,86,0.00,,---,0.04,VWS V14.01,2013-03-17 21:06:00,
2013-03-17 17:12:00,41.5,37.9,30.03,NE,55,1.0,6.0,87,0.00,,---,0.04,VWS V14.01,2013-03-17 21:12:00,
2013-03-17 17:17:00,41.3,37.7,30.04,ENE,60,2.0,6.0,87,0.00,,---,0.04,VWS V14.01,2013-03-17 21:17:00,
2013-03-17 17:24:00,41.2,37.6,30.04,ENE,62,4.0,6.0,87,0.00,,---,0.04,VWS V14.01,2013-03-17 21:24:00,
2013-03-17 17:30:00,41.2,37.6,30.04,ENE,60,0.0,6.0,87,0.00,,---,0.04,VWS V14.01,2013-03-17 21:30:00,
2013-03-17 17:36:00,41.2,37.3,30.04,ENE,65,1.0,6.0,86,0.00,,---,0.04,VWS V14.01,2013-03-17 21:36:00,
2013-03-17 17:42:00,41.1,37.2,30.04,NE,47,1.0,6.0,86,0.00,,---,0.04,VWS V14.01,2013-03-17 21:42:00,
2013-03-17 17:47:00,41.1,37.2,30.03,NE,52,2.0,6.0,86,0.00,,---,0.04,VWS V14.01,2013-03-17 21:47:00,
2013-03-17 17:52:00,41.1,37.2,30.03,ENE,58,4.0,5.0,86,0.00,,---,0.04,VWS V14.01,2013-03-17 21:52:00,
2013-03-17 17:58:00,41.1,37.2,30.03,ENE,68,2.0,7.0,86,0.00,,---,0.04,VWS V14.01,2013-03-17 21:58:00,
2013-03-17 18:04:00,41.1,37.2,30.03,NE,53,3.0,3.0,86,0.00,,---,0.04,VWS V14.01,2013-03-17 22:04:00,
2013-03-17 18:11:00,40.9,37.0,30.03,NE,40,0.0,6.0,86,0.00,,---,0.04,VWS V14.01,2013-03-17 22:11:00,
2013-03-17 18:17:00,40.9,37.0,30.03,NE,51,0.0,6.0,86,0.00,,---,0.04,VWS V14.01,2013-03-17 22:17:00,
2013-03-17 18:23:00,40.8,36.9,30.03,ENE,65,3.0,6.0,86,0.00,,---,0.04,VWS V14.01,2013-03-17 22:23:00,
2013-03-17 18:29:00,40.6,36.8,30.03,ENE,65,0.0,6.0,86,0.00,,---,0.04,VWS V14.01,2013-03-17 22:29:00,
2013-03-17 18:35:00,40.6,36.8,30.04,NNE,26,3.0,4.0,86,0.00,,---,0.04,VWS V14.01,2013-03-17 22:35:00,
2013-03-17 18:41:00,40.5,36.7,30.04,ENE,71,0.0,5.0,86,0.00,,---,0.04,VWS V14.01,2013-03-17 22:41:00,
2013-03-17 18:47:00,40.3,36.8,30.05,ENE,58,3.0,7.0,87,0.00,,---,0.04,VWS V14.01,2013-03-17 22:47:00,
2013-03-17 18:53:00,40.2,36.7,30.05,ENE,70,2.0,7.0,87,0.00,,---,0.04,VWS V14.01,2013-03-17 22:53:00,
2013-03-17 18:59:00,40.1,36.5,30.05,ENE,67,3.0,7.0,87,0.00,,---,0.04,VWS V14.01,2013-03-17 22:59:00,
2013-03-17 19:05:00,40.1,36.8,30.06,ENE,64,2.0,6.0,88,0.00,,---,0.04,VWS V14.01,2013-03-17 23:05:00,
2013-03-17 19:11:00,39.9,36.6,30.06,ENE,60,1.0,6.0,88,0.00,,---,0.04,VWS V14.01,2013-03-17 23:11:00,
2013-03-17 19:17:00,39.9,36.6,30.07,ENE,65,0.0,6.0,88,0.00,,---,0.04,VWS V14.01,2013-03-17 23:17:00,
2013-03-17 19:23:00,39.8,36.5,30.07,ENE,66,1.0,4.0,88,0.00,,---,0.04,VWS V14.01,2013-03-17 23:23:00,
2013-03-17 19:29:00,39.8,36.8,30.07,NE,53,0.0,4.0,89,0.00,,---,0.04,VWS V14.01,2013-03-17 23:29:00,
2013-03-17 19:35:00,39.8,36.8,30.07,NE,51,1.0,5.0,89,0.00,,---,0.04,VWS V14.01,2013-03-17 23:35:00,
2013-03-17 19:41:00,39.6,36.3,30.07,ENE,70,0.0,7.0,88,0.00,,---,0.04,VWS V14.01,2013-03-17 23:41:00,
2013-03-17 19:47:00,39.5,36.5,30.06,NE,55,5.0,7.0,89,0.00,,---,0.04,VWS V14.01,2013-03-17 23:47:00,
2013-03-17 19:53:00,39.5,36.2,30.06,NE,47,5.0,6.0,88,0.00,,---,0.04,VWS V14.01,2013-03-17 23:53:00,
2013-03-17 19:59:00,39.5,36.2,30.06,ENE,64,1.0,6.0,88,0.00,,---,0.04,VWS V14.01,2013-03-17 23:59:00,
2013-03-17 20:05:00,39.3,36.0,30.08,NE,49,4.0,7.0,88,0.00,,---,0.04,VWS V14.01,2013-03-18 00:05:00,
2013-03-17 20:11:00,39.3,36.0,30.08,NNE,22,2.0,8.0,88,0.00,,---,0.04,VWS V14.01,2013-03-18 00:11:00,
2013-03-17 20:17:00,39.3,36.0,30.09,NE,51,5.0,9.0,88,0.00,,---,0.04,VWS V14.01,2013-03-18 00:17:00,
2013-03-17 20:24:00,39.3,36.0,30.09,ENE,78,2.0,6.0,88,0.00,,---,0.04,VWS V14.01,2013-03-18 00:24:00,
2013-03-17 20:30:00,39.3,36.0,30.09,ENE,75,0.0,6.0,88,0.00,,---,0.04,VWS V14.01,2013-03-18 00:30:00,
2013-03-17 20:36:00,39.2,36.2,30.10,ENE,75,4.0,4.0,89,0.00,,---,0.04,VWS V14.01,2013-03-18 00:36:00,
2013-03-17 20:42:00,39.2,36.5,30.10,ENE,63,0.0,7.0,90,0.00,,---,0.04,VWS V14.01,2013-03-18 00:42:00,
2013-03-17 20:47:00,39.2,36.8,30.11,ENE,63,0.0,7.0,91,0.00,,---,0.04,VWS V14.01,2013-03-18 00:47:00,
2013-03-17 20:54:00,39.2,36.8,30.11,ENE,63,0.0,5.0,91,0.00,,---,0.04,VWS V14.01,2013-03-18 00:54:00,
2013-03-17 21:00:00,39.1,37.0,30.11,ENE,72,1.0,5.0,92,0.00,,---,0.04,VWS V14.01,2013-03-18 01:00:00,
2013-03-17 21:06:00,38.8,36.7,30.11,ENE,70,2.0,6.0,92,0.00,,---,0.04,VWS V14.01,2013-03-18 01:06:00,
2013-03-17 21:12:00,38.6,36.8,30.11,ENE,67,2.0,6.0,93,0.00,,---,0.04,VWS V14.01,2013-03-18 01:12:00,
2013-03-17 21:17:00,38.6,36.8,30.13,ENE,68,4.0,6.0,93,0.00,,---,0.04,VWS V14.01,2013-03-18 01:17:00,
2013-03-17 21:22:00,38.6,37.0,30.13,ENE,68,1.0,5.0,94,0.00,,---,0.04,VWS V14.01,2013-03-18 01:22:00,
2013-03-17 21:28:00,38.5,36.9,30.13,ENE,69,0.0,5.0,94,0.00,,---,0.04,VWS V14.01,2013-03-18 01:28:00,
2013-03-17 21:34:00,38.3,36.7,30.13,ENE,69,0.0,2.0,94,0.00,,---,0.04,VWS V14.01,2013-03-18 01:34:00,
2013-03-17 21:40:00,38.3,37.0,30.13,NNE,32,1.0,4.0,95,0.00,,---,0.04,VWS V14.01,2013-03-18 01:40:00,
2013-03-17 21:46:00,38.2,36.9,30.13,ENE,65,0.0,4.0,95,0.00,,---,0.04,VWS V14.01,2013-03-18 01:46:00,
2013-03-17 21:52:00,38.2,36.9,30.13,ENE,67,0.0,4.0,95,0.00,,---,0.04,VWS V14.01,2013-03-18 01:52:00,
2013-03-17 21:58:00,38.2,36.9,30.13,ENE,67,0.0,4.0,95,0.00,,---,0.04,VWS V14.01,2013-03-18 01:58:00,
2013-03-17 22:04:00,38.0,36.7,30.13,ENE,58,2.0,3.0,95,0.00,,---,0.04,VWS V14.01,2013-03-18 02:04:00,
2013-03-17 22:10:00,37.9,36.6,30.13,ENE,68,0.0,6.0,95,0.00,,---,0.04,VWS V14.01,2013-03-18 02:10:00,
2013-03-17 22:16:00,37.8,36.5,30.14,NE,44,0.0,6.0,95,0.00,,---,0.04,VWS V14.01,2013-03-18 02:16:00,
2013-03-17 22:22:00,37.8,36.5,30.14,NE,34,0.0,3.0,95,0.00,,---,0.04,VWS V14.01,2013-03-18 02:22:00,
2013-03-17 22:28:00,37.6,36.3,30.14,ENE,63,2.0,4.0,95,0.00,,---,0.04,VWS V14.01,2013-03-18 02:28:00,
2013-03-17 22:34:00,37.6,36.3,30.14,ENE,77,0.0,2.0,95,0.00,,---,0.04,VWS V14.01,2013-03-18 02:34:00,
2013-03-17 22:40:00,37.6,36.6,30.14,ENE,62,0.0,6.0,96,0.00,,---,0.04,VWS V14.01,2013-03-18 02:40:00,
2013-03-17 22:47:00,37.5,36.5,30.14,ENE,62,3.0,6.0,96,0.00,,---,0.04,VWS V14.01,2013-03-18 02:47:00,
2013-03-17 22:53:00,37.5,36.5,30.14,ENE,61,0.0,3.0,96,0.00,,---,0.04,VWS V14.01,2013-03-18 02:53:00,
2013-03-17 22:59:00,37.5,36.5,30.14,ENE,61,0.0,3.0,96,0.00,,---,0.04,VWS V14.01,2013-03-18 02:59:00,
2013-03-17 23:00:00,37.2,36.4,30.15,NE,49,0.0,2.0,97,0.01,,---,0.05,VWS V14.01,2013-03-18 03:00:00,
2013-03-17 23:01:00,37.3,36.5,30.15,ENE,66,0.0,2.0,97,0.01,,---,0.05,VWS V14.01,2013-03-18 03:01:00,
2013-03-17 23:03:00,37.3,36.5,30.15,ENE,66,0.0,2.0,97,0.01,,---,0.05,VWS V14.01,2013-03-18 03:03:00,
2013-03-17 23:05:00,37.3,36.3,30.15,NE,35,0.0,1.0,96,0.00,,---,0.04,VWS V14.01,2013-03-18 03:05:00,
2013-03-17 23:07:00,37.2,36.4,30.15,ENE,66,0.0,2.0,97,0.01,,---,0.05,VWS V14.01,2013-03-18 03:07:00,
2013-03-17 23:09:00,37.2,36.4,30.15,ENE,66,0.0,2.0,97,0.01,,---,0.05,VWS V14.01,2013-03-18 03:09:00,
2013-03-17 23:11:00,37.3,36.3,30.15,NE,35,0.0,1.0,96,0.00,,---,0.04,VWS V14.01,2013-03-18 03:11:00,
2013-03-17 23:13:00,37.2,36.4,30.15,NE,35,0.0,2.0,97,0.01,,---,0.05,VWS V14.01,2013-03-18 03:13:00,
2013-03-17 23:15:00,37.2,36.4,30.15,NNE,14,0.0,2.0,97,0.01,,---,0.05,VWS V14.01,2013-03-18 03:15:00,
2013-03-17 23:17:00,37.3,36.3,30.15,NE,44,0.0,2.0,96,0.00,,---,0.04,VWS V14.01,2013-03-18 03:17:00,
2013-03-17 23:19:00,37.2,36.4,30.15,NNE,30,0.0,2.0,97,0.01,,---,0.05,VWS V14.01,2013-03-18 03:19:00,
2013-03-17 23:21:00,37.2,36.4,30.15,NNE,30,0.0,2.0,97,0.01,,---,0.05,VWS V14.01,2013-03-18 03:21:00,
2013-03-17 23:23:00,37.3,36.3,30.15,ENE,57,0.0,3.0,96,0.00,,---,0.04,VWS V14.01,2013-03-18 03:23:00,
2013-03-17 23:25:00,37.0,36.2,30.15,NE,47,1.0,3.0,97,0.01,,---,0.05,VWS V14.01,2013-03-18 03:25:00,
2013-03-17 23:27:00,37.0,36.2,30.15,NE,47,0.0,3.0,97,0.01,,---,0.05,VWS V14.01,2013-03-18 03:27:00,
2013-03-17 23:29:00,37.3,36.3,30.15,ENE,68,3.0,3.0,96,0.01,,---,0.05,VWS V14.01,2013-03-18 03:29:00,
2013-03-17 23:30:00,37.0,36.2,30.14,NE,47,0.0,3.0,97,0.01,,---,0.05,VWS V14.01,2013-03-18 03:30:00,
2013-03-17 23:31:00,37.0,36.2,30.14,NE,47,1.0,2.0,97,0.00,,---,0.05,VWS V14.01,2013-03-18 03:31:00,
2013-03-17 23:33:00,37.0,36.2,30.14,NE,47,0.0,2.0,97,0.00,,---,0.05,VWS V14.01,2013-03-18 03:33:00,
2013-03-17 23:35:00,37.3,36.5,30.15,NE,45,0.0,1.0,97,0.01,,---,0.05,VWS V14.01,2013-03-18 03:35:00,
2013-03-17 23:37:00,37.2,36.4,30.14,NE,52,1.0,3.0,97,0.00,,---,0.05,VWS V14.01,2013-03-18 03:37:00,
2013-03-17 23:39:00,37.2,36.4,30.14,ENE,58,1.0,3.0,97,0.00,,---,0.05,VWS V14.01,2013-03-18 03:39:00,
2013-03-17 23:41:00,37.3,36.5,30.15,NE,45,0.0,1.0,97,0.01,,---,0.05,VWS V14.01,2013-03-18 03:41:00,
2013-03-17 23:43:00,37.2,36.4,30.14,ENE,59,0.0,3.0,97,0.00,,---,0.05,VWS V14.01,2013-03-18 03:43:00,
2013-03-17 23:45:00,37.0,36.2,30.14,ENE,59,0.0,3.0,97,0.00,,---,0.05,VWS V14.01,2013-03-18 03:45:00,
2013-03-17 23:47:00,37.2,36.4,30.16,NE,45,0.0,1.0,97,0.01,,---,0.05,VWS V14.01,2013-03-18 03:47:00,
2013-03-17 23:49:00,37.0,36.2,30.14,ENE,58,0.0,1.0,97,0.00,,---,0.05,VWS V14.01,2013-03-18 03:49:00,
2013-03-17 23:51:00,37.0,36.2,30.14,North,7,3.0,4.0,97,0.00,,---,0.05,VWS V14.01,2013-03-18 03:51:00,
2013-03-17 23:53:00,37.2,36.4,30.16,NE,49,0.0,2.0,97,0.01,,---,0.05,VWS V14.01,2013-03-18 03:53:00,
2013-03-17 23:55:00,36.9,36.1,30.14,NE,51,2.0,4.0,97,0.01,,---,0.06,VWS V14.01,2013-03-18 03:55:00,
2013-03-17 23:57:00,36.9,36.4,30.14,ENE,72,3.0,4.0,98,0.01,,---,0.06,VWS V14.01,2013-03-18 03:57:00,
2013-03-17 23:59:00,37.2,36.4,30.16,NE,49,0.0,2.0,97,0.01,,---,0.05,VWS V14.01,2013-03-18 03:59:00,